sensor_id;sensor_type;location;lat;lon;timestamp;P1;durP1;ratioP1;P2;durP2;ratioP2
23328;SDS011;11836;51.050;3.716;2023-02-28T00:01:23;2.97;;;1.50;;
23328;SDS011;11836;51.050;3.716;2023-02-28T00:03:49;3.03;;;1.23;;
23328;SDS011;11836;51.050;3.716;2023-02-28T00:06:15;1.08;;;0.98;;
23328;SDS011;11836;51.050;3.716;2023-02-28T00:08:40;2.72;;;1.40;;
23328;SDS011;11836;51.050;3.716;2023-02-28T00:11:07;2.15;;;1.15;;
23328;SDS011;11836;51.050;3.716;2023-02-28T00:13:35;2.60;;;1.65;;
23328;SDS011;11836;51.050;3.716;2023-02-28T00:16:03;2.72;;;1.48;;
23328;SDS011;11836;51.050;3.716;2023-02-28T00:18:34;2.17;;;1.50;;
23328;SDS011;11836;51.050;3.716;2023-02-28T00:21:00;1.65;;;1.50;;
23328;SDS011;11836;51.050;3.716;2023-02-28T00:23:26;2.80;;;1.42;;
23328;SDS011;11836;51.050;3.716;2023-02-28T00:25:53;2.72;;;1.10;;
23328;SDS011;11836;51.050;3.716;2023-02-28T00:28:19;1.73;;;1.42;;
23328;SDS011;11836;51.050;3.716;2023-02-28T00:30:45;4.57;;;1.30;;
23328;SDS011;11836;51.050;3.716;2023-02-28T00:33:11;3.40;;;1.48;;
23328;SDS011;11836;51.050;3.716;2023-02-28T00:35:37;1.85;;;1.40;;
23328;SDS011;11836;51.050;3.716;2023-02-28T00:38:02;2.60;;;1.27;;
23328;SDS011;11836;51.050;3.716;2023-02-28T00:40:28;2.25;;;1.48;;
23328;SDS011;11836;51.050;3.716;2023-02-28T00:42:54;4.15;;;1.80;;
23328;SDS011;11836;51.050;3.716;2023-02-28T00:45:20;2.33;;;1.20;;
23328;SDS011;11836;51.050;3.716;2023-02-28T00:47:46;2.47;;;1.42;;
23328;SDS011;11836;51.050;3.716;2023-02-28T00:50:14;2.28;;;1.50;;
23328;SDS011;11836;51.050;3.716;2023-02-28T00:52:44;2.40;;;1.37;;
23328;SDS011;11836;51.050;3.716;2023-02-28T00:55:09;2.13;;;1.30;;
23328;SDS011;11836;51.050;3.716;2023-02-28T00:57:35;3.40;;;1.50;;
23328;SDS011;11836;51.050;3.716;2023-02-28T01:00:01;1.95;;;1.30;;
23328;SDS011;11836;51.050;3.716;2023-02-28T01:02:28;1.42;;;1.13;;
23328;SDS011;11836;51.050;3.716;2023-02-28T01:04:54;1.80;;;1.50;;
23328;SDS011;11836;51.050;3.716;2023-02-28T01:07:21;3.53;;;1.70;;
23328;SDS011;11836;51.050;3.716;2023-02-28T01:09:47;3.35;;;1.73;;
23328;SDS011;11836;51.050;3.716;2023-02-28T01:12:13;2.47;;;1.60;;
23328;SDS011;11836;51.050;3.716;2023-02-28T01:14:38;2.35;;;1.60;;
23328;SDS011;11836;51.050;3.716;2023-02-28T01:17:04;2.42;;;1.45;;
23328;SDS011;11836;51.050;3.716;2023-02-28T01:19:30;2.75;;;1.50;;
23328;SDS011;11836;51.050;3.716;2023-02-28T01:21:58;1.75;;;1.20;;
23328;SDS011;11836;51.050;3.716;2023-02-28T01:24:26;1.40;;;1.20;;
23328;SDS011;11836;51.050;3.716;2023-02-28T01:26:52;2.00;;;1.10;;
23328;SDS011;11836;51.050;3.716;2023-02-28T01:29:17;1.92;;;1.25;;
23328;SDS011;11836;51.050;3.716;2023-02-28T01:31:43;2.42;;;1.50;;
23328;SDS011;11836;51.050;3.716;2023-02-28T01:34:08;1.40;;;1.20;;
23328;SDS011;11836;51.050;3.716;2023-02-28T01:36:34;1.75;;;1.20;;
23328;SDS011;11836;51.050;3.716;2023-02-28T01:39:01;1.85;;;1.10;;
23328;SDS011;11836;51.050;3.716;2023-02-28T01:41:28;2.60;;;1.60;;
23328;SDS011;11836;51.050;3.716;2023-02-28T01:43:58;1.95;;;1.23;;
23328;SDS011;11836;51.050;3.716;2023-02-28T01:46:34;5.35;;;1.70;;
23328;SDS011;11836;51.050;3.716;2023-02-28T01:49:08;2.55;;;1.63;;
23328;SDS011;11836;51.050;3.716;2023-02-28T01:51:45;1.92;;;1.35;;
23328;SDS011;11836;51.050;3.716;2023-02-28T01:54:27;1.60;;;1.13;;
23328;SDS011;11836;51.050;3.716;2023-02-28T01:56:58;1.00;;;0.80;;
23328;SDS011;11836;51.050;3.716;2023-02-28T01:59:39;2.63;;;1.67;;
23328;SDS011;11836;51.050;3.716;2023-02-28T02:02:16;1.95;;;1.50;;
23328;SDS011;11836;51.050;3.716;2023-02-28T02:04:55;2.03;;;1.20;;
23328;SDS011;11836;51.050;3.716;2023-02-28T02:07:29;2.40;;;1.30;;
23328;SDS011;11836;51.050;3.716;2023-02-28T02:15:40;2.47;;;1.30;;
23328;SDS011;11836;51.050;3.716;2023-02-28T02:18:19;1.98;;;1.10;;
23328;SDS011;11836;51.050;3.716;2023-02-28T02:21:10;1.60;;;1.33;;
23328;SDS011;11836;51.050;3.716;2023-02-28T02:29:22;2.50;;;1.33;;
23328;SDS011;11836;51.050;3.716;2023-02-28T02:37:15;2.55;;;1.58;;
23328;SDS011;11836;51.050;3.716;2023-02-28T02:42:44;1.85;;;1.40;;
23328;SDS011;11836;51.050;3.716;2023-02-28T02:45:59;2.10;;;1.25;;
23328;SDS011;11836;51.050;3.716;2023-02-28T02:48:08;2.15;;;1.50;;
23328;SDS011;11836;51.050;3.716;2023-02-28T02:50:38;1.92;;;1.52;;
23328;SDS011;11836;51.050;3.716;2023-02-28T02:53:09;1.40;;;1.00;;
23328;SDS011;11836;51.050;3.716;2023-02-28T02:55:39;1.92;;;1.67;;
23328;SDS011;11836;51.050;3.716;2023-02-28T02:58:10;2.83;;;1.30;;
23328;SDS011;11836;51.050;3.716;2023-02-28T03:00:41;2.95;;;1.75;;
23328;SDS011;11836;51.050;3.716;2023-02-28T03:03:11;3.30;;;1.40;;
23328;SDS011;11836;51.050;3.716;2023-02-28T03:05:48;2.47;;;1.60;;
23328;SDS011;11836;51.050;3.716;2023-02-28T03:08:15;2.78;;;1.33;;
23328;SDS011;11836;51.050;3.716;2023-02-28T03:10:42;1.85;;;1.13;;
23328;SDS011;11836;51.050;3.716;2023-02-28T03:16:07;2.88;;;1.73;;
23328;SDS011;11836;51.050;3.716;2023-02-28T03:18:54;1.70;;;1.15;;
23328;SDS011;11836;51.050;3.716;2023-02-28T03:21:56;1.73;;;1.45;;
23328;SDS011;11836;51.050;3.716;2023-02-28T03:27:20;1.75;;;1.23;;
23328;SDS011;11836;51.050;3.716;2023-02-28T03:30:00;1.48;;;1.13;;
23328;SDS011;11836;51.050;3.716;2023-02-28T03:32:57;2.05;;;1.65;;
23328;SDS011;11836;51.050;3.716;2023-02-28T03:35:29;4.47;;;1.50;;
23328;SDS011;11836;51.050;3.716;2023-02-28T03:38:45;1.70;;;1.48;;
23328;SDS011;11836;51.050;3.716;2023-02-28T03:41:15;2.03;;;1.50;;
23328;SDS011;11836;51.050;3.716;2023-02-28T03:43:56;2.50;;;1.70;;
23328;SDS011;11836;51.050;3.716;2023-02-28T03:46:27;2.55;;;1.63;;
23328;SDS011;11836;51.050;3.716;2023-02-28T03:49:04;2.42;;;1.45;;
23328;SDS011;11836;51.050;3.716;2023-02-28T03:51:43;2.80;;;1.67;;
23328;SDS011;11836;51.050;3.716;2023-02-28T03:54:14;2.20;;;1.37;;
23328;SDS011;11836;51.050;3.716;2023-02-28T03:56:47;2.45;;;1.60;;
23328;SDS011;11836;51.050;3.716;2023-02-28T03:59:21;1.75;;;1.38;;
23328;SDS011;11836;51.050;3.716;2023-02-28T04:01:48;2.72;;;1.52;;
23328;SDS011;11836;51.050;3.716;2023-02-28T04:04:15;2.15;;;1.42;;
23328;SDS011;11836;51.050;3.716;2023-02-28T04:06:42;2.72;;;1.80;;
23328;SDS011;11836;51.050;3.716;2023-02-28T04:09:10;2.78;;;1.40;;
23328;SDS011;11836;51.050;3.716;2023-02-28T04:11:38;2.00;;;1.55;;
23328;SDS011;11836;51.050;3.716;2023-02-28T04:14:12;4.15;;;1.52;;
23328;SDS011;11836;51.050;3.716;2023-02-28T04:16:39;2.08;;;1.40;;
23328;SDS011;11836;51.050;3.716;2023-02-28T04:19:08;1.92;;;1.30;;
23328;SDS011;11836;51.050;3.716;2023-02-28T04:21:36;2.17;;;1.60;;
23328;SDS011;11836;51.050;3.716;2023-02-28T04:24:07;2.80;;;1.38;;
23328;SDS011;11836;51.050;3.716;2023-02-28T04:26:38;1.92;;;1.40;;
23328;SDS011;11836;51.050;3.716;2023-02-28T04:29:07;3.67;;;1.60;;
23328;SDS011;11836;51.050;3.716;2023-02-28T04:31:33;2.65;;;1.50;;
23328;SDS011;11836;51.050;3.716;2023-02-28T04:33:59;3.78;;;1.20;;
23328;SDS011;11836;51.050;3.716;2023-02-28T04:36:25;1.10;;;1.00;;
23328;SDS011;11836;51.050;3.716;2023-02-28T04:38:52;1.90;;;1.58;;
23328;SDS011;11836;51.050;3.716;2023-02-28T04:41:17;3.58;;;1.60;;
23328;SDS011;11836;51.050;3.716;2023-02-28T04:43:43;2.78;;;1.27;;
23328;SDS011;11836;51.050;3.716;2023-02-28T04:46:09;1.75;;;1.45;;
23328;SDS011;11836;51.050;3.716;2023-02-28T04:48:36;1.95;;;1.33;;
23328;SDS011;11836;51.050;3.716;2023-02-28T04:51:03;3.78;;;1.70;;
23328;SDS011;11836;51.050;3.716;2023-02-28T04:53:31;1.90;;;1.50;;
23328;SDS011;11836;51.050;3.716;2023-02-28T04:55:57;2.10;;;1.52;;
23328;SDS011;11836;51.050;3.716;2023-02-28T04:58:24;3.00;;;1.60;;
23328;SDS011;11836;51.050;3.716;2023-02-28T05:00:53;1.77;;;1.50;;
23328;SDS011;11836;51.050;3.716;2023-02-28T05:03:25;2.65;;;1.63;;
23328;SDS011;11836;51.050;3.716;2023-02-28T05:05:51;2.83;;;1.90;;
23328;SDS011;11836;51.050;3.716;2023-02-28T05:08:17;3.53;;;2.20;;
23328;SDS011;11836;51.050;3.716;2023-02-28T05:10:42;1.80;;;1.60;;
23328;SDS011;11836;51.050;3.716;2023-02-28T05:13:10;2.15;;;1.58;;
23328;SDS011;11836;51.050;3.716;2023-02-28T05:15:37;2.97;;;1.58;;
23328;SDS011;11836;51.050;3.716;2023-02-28T05:18:02;2.83;;;1.73;;
23328;SDS011;11836;51.050;3.716;2023-02-28T05:20:28;1.55;;;1.45;;
23328;SDS011;11836;51.050;3.716;2023-02-28T05:22:54;3.78;;;1.67;;
23328;SDS011;11836;51.050;3.716;2023-02-28T05:25:20;2.42;;;1.58;;
23328;SDS011;11836;51.050;3.716;2023-02-28T05:27:47;3.45;;;1.92;;
23328;SDS011;11836;51.050;3.716;2023-02-28T05:30:13;1.98;;;1.52;;
23328;SDS011;11836;51.050;3.716;2023-02-28T05:32:40;1.85;;;1.40;;
23328;SDS011;11836;51.050;3.716;2023-02-28T05:35:08;1.90;;;1.40;;
23328;SDS011;11836;51.050;3.716;2023-02-28T05:37:37;1.60;;;1.42;;
23328;SDS011;11836;51.050;3.716;2023-02-28T05:40:04;2.42;;;1.60;;
23328;SDS011;11836;51.050;3.716;2023-02-28T05:42:36;3.83;;;1.63;;
23328;SDS011;11836;51.050;3.716;2023-02-28T05:45:03;1.77;;;1.40;;
23328;SDS011;11836;51.050;3.716;2023-02-28T05:47:31;1.60;;;1.20;;
23328;SDS011;11836;51.050;3.716;2023-02-28T05:49:57;2.05;;;1.42;;
23328;SDS011;11836;51.050;3.716;2023-02-28T05:52:23;2.75;;;2.03;;
23328;SDS011;11836;51.050;3.716;2023-02-28T05:54:48;2.35;;;1.50;;
23328;SDS011;11836;51.050;3.716;2023-02-28T05:57:14;2.30;;;1.92;;
23328;SDS011;11836;51.050;3.716;2023-02-28T05:59:40;2.67;;;1.58;;
23328;SDS011;11836;51.050;3.716;2023-02-28T06:02:06;2.28;;;1.85;;
23328;SDS011;11836;51.050;3.716;2023-02-28T06:04:35;2.70;;;1.58;;
23328;SDS011;11836;51.050;3.716;2023-02-28T06:07:01;2.58;;;1.75;;
23328;SDS011;11836;51.050;3.716;2023-02-28T06:09:27;2.85;;;1.92;;
23328;SDS011;11836;51.050;3.716;2023-02-28T06:11:54;2.47;;;1.75;;
23328;SDS011;11836;51.050;3.716;2023-02-28T06:14:19;3.60;;;2.05;;
23328;SDS011;11836;51.050;3.716;2023-02-28T06:16:45;3.45;;;1.70;;
23328;SDS011;11836;51.050;3.716;2023-02-28T06:19:11;2.97;;;1.63;;
23328;SDS011;11836;51.050;3.716;2023-02-28T06:21:37;2.58;;;1.90;;
23328;SDS011;11836;51.050;3.716;2023-02-28T06:24:03;2.75;;;1.65;;
23328;SDS011;11836;51.050;3.716;2023-02-28T06:26:29;5.22;;;1.88;;
23328;SDS011;11836;51.050;3.716;2023-02-28T06:28:55;3.08;;;1.55;;
23328;SDS011;11836;51.050;3.716;2023-02-28T06:31:21;5.25;;;1.73;;
23328;SDS011;11836;51.050;3.716;2023-02-28T06:33:47;2.65;;;1.60;;
23328;SDS011;11836;51.050;3.716;2023-02-28T06:36:14;3.22;;;1.90;;
23328;SDS011;11836;51.050;3.716;2023-02-28T06:38:40;4.13;;;1.90;;
23328;SDS011;11836;51.050;3.716;2023-02-28T06:41:08;2.70;;;1.65;;
23328;SDS011;11836;51.050;3.716;2023-02-28T06:43:35;3.05;;;1.67;;
23328;SDS011;11836;51.050;3.716;2023-02-28T06:46:04;2.63;;;1.60;;
23328;SDS011;11836;51.050;3.716;2023-02-28T06:48:32;4.13;;;1.80;;
23328;SDS011;11836;51.050;3.716;2023-02-28T06:51:08;2.30;;;1.55;;
23328;SDS011;11836;51.050;3.716;2023-02-28T06:53:39;9.20;;;3.58;;
23328;SDS011;11836;51.050;3.716;2023-02-28T06:56:10;3.90;;;2.40;;
23328;SDS011;11836;51.050;3.716;2023-02-28T06:58:40;4.47;;;2.20;;
23328;SDS011;11836;51.050;3.716;2023-02-28T07:01:07;4.43;;;2.00;;
23328;SDS011;11836;51.050;3.716;2023-02-28T07:03:34;2.97;;;2.13;;
23328;SDS011;11836;51.050;3.716;2023-02-28T07:06:01;4.20;;;2.40;;
23328;SDS011;11836;51.050;3.716;2023-02-28T07:08:27;4.50;;;2.72;;
23328;SDS011;11836;51.050;3.716;2023-02-28T07:10:56;6.07;;;2.55;;
23328;SDS011;11836;51.050;3.716;2023-02-28T07:13:23;6.13;;;2.72;;
23328;SDS011;11836;51.050;3.716;2023-02-28T07:16:00;3.45;;;2.17;;
23328;SDS011;11836;51.050;3.716;2023-02-28T07:18:30;4.38;;;2.10;;
23328;SDS011;11836;51.050;3.716;2023-02-28T07:20:56;4.20;;;1.92;;
23328;SDS011;11836;51.050;3.716;2023-02-28T07:23:22;4.20;;;1.90;;
23328;SDS011;11836;51.050;3.716;2023-02-28T07:25:49;5.75;;;2.38;;
23328;SDS011;11836;51.050;3.716;2023-02-28T07:28:15;3.83;;;2.20;;
23328;SDS011;11836;51.050;3.716;2023-02-28T07:30:41;4.00;;;2.17;;
23328;SDS011;11836;51.050;3.716;2023-02-28T07:33:07;3.38;;;1.88;;
23328;SDS011;11836;51.050;3.716;2023-02-28T07:35:33;4.22;;;2.20;;
23328;SDS011;11836;51.050;3.716;2023-02-28T07:37:59;4.70;;;2.28;;
23328;SDS011;11836;51.050;3.716;2023-02-28T07:40:25;2.50;;;1.65;;
23328;SDS011;11836;51.050;3.716;2023-02-28T07:42:54;4.75;;;2.00;;
23328;SDS011;11836;51.050;3.716;2023-02-28T07:45:20;3.47;;;2.08;;
23328;SDS011;11836;51.050;3.716;2023-02-28T07:47:46;2.65;;;1.85;;
23328;SDS011;11836;51.050;3.716;2023-02-28T07:50:12;2.45;;;1.60;;
23328;SDS011;11836;51.050;3.716;2023-02-28T07:52:40;2.65;;;1.60;;
23328;SDS011;11836;51.050;3.716;2023-02-28T07:55:06;3.20;;;1.83;;
23328;SDS011;11836;51.050;3.716;2023-02-28T07:57:33;2.70;;;1.75;;
23328;SDS011;11836;51.050;3.716;2023-02-28T07:59:58;2.13;;;1.65;;
23328;SDS011;11836;51.050;3.716;2023-02-28T08:02:24;3.70;;;1.73;;
23328;SDS011;11836;51.050;3.716;2023-02-28T08:04:50;3.38;;;1.80;;
23328;SDS011;11836;51.050;3.716;2023-02-28T08:07:16;1.73;;;1.30;;
23328;SDS011;11836;51.050;3.716;2023-02-28T08:09:42;2.47;;;1.70;;
23328;SDS011;11836;51.050;3.716;2023-02-28T08:12:09;2.25;;;1.42;;
23328;SDS011;11836;51.050;3.716;2023-02-28T08:14:35;2.35;;;1.55;;
23328;SDS011;11836;51.050;3.716;2023-02-28T08:17:02;4.20;;;1.65;;
23328;SDS011;11836;51.050;3.716;2023-02-28T08:19:27;2.88;;;1.33;;
23328;SDS011;11836;51.050;3.716;2023-02-28T08:21:53;2.50;;;1.50;;
23328;SDS011;11836;51.050;3.716;2023-02-28T08:24:19;1.80;;;1.40;;
23328;SDS011;11836;51.050;3.716;2023-02-28T08:26:45;3.50;;;1.40;;
23328;SDS011;11836;51.050;3.716;2023-02-28T08:29:11;4.55;;;1.58;;
23328;SDS011;11836;51.050;3.716;2023-02-28T08:31:36;8.65;;;1.80;;
23328;SDS011;11836;51.050;3.716;2023-02-28T08:34:06;1.88;;;1.40;;
23328;SDS011;11836;51.050;3.716;2023-02-28T08:36:33;5.30;;;2.00;;
23328;SDS011;11836;51.050;3.716;2023-02-28T08:38:59;2.97;;;1.70;;
23328;SDS011;11836;51.050;3.716;2023-02-28T08:41:25;2.40;;;1.30;;
23328;SDS011;11836;51.050;3.716;2023-02-28T08:43:51;3.63;;;1.63;;
23328;SDS011;11836;51.050;3.716;2023-02-28T08:46:16;3.17;;;1.75;;
23328;SDS011;11836;51.050;3.716;2023-02-28T08:48:43;2.75;;;1.63;;
23328;SDS011;11836;51.050;3.716;2023-02-28T08:51:13;2.65;;;1.35;;
23328;SDS011;11836;51.050;3.716;2023-02-28T08:53:41;4.75;;;1.60;;
23328;SDS011;11836;51.050;3.716;2023-02-28T08:56:08;3.28;;;1.58;;
23328;SDS011;11836;51.050;3.716;2023-02-28T08:58:36;2.05;;;1.60;;
23328;SDS011;11836;51.050;3.716;2023-02-28T09:01:09;3.25;;;1.67;;
23328;SDS011;11836;51.050;3.716;2023-02-28T09:03:37;4.43;;;1.90;;
23328;SDS011;11836;51.050;3.716;2023-02-28T09:06:03;1.83;;;1.48;;
23328;SDS011;11836;51.050;3.716;2023-02-28T09:08:29;1.83;;;1.30;;
23328;SDS011;11836;51.050;3.716;2023-02-28T09:10:59;3.88;;;2.13;;
23328;SDS011;11836;51.050;3.716;2023-02-28T09:13:27;2.63;;;1.83;;
23328;SDS011;11836;51.050;3.716;2023-02-28T09:15:53;4.28;;;1.73;;
23328;SDS011;11836;51.050;3.716;2023-02-28T09:18:19;3.50;;;1.88;;
23328;SDS011;11836;51.050;3.716;2023-02-28T09:20:45;3.67;;;1.65;;
23328;SDS011;11836;51.050;3.716;2023-02-28T09:23:11;3.35;;;1.70;;
23328;SDS011;11836;51.050;3.716;2023-02-28T09:25:40;4.50;;;1.90;;
23328;SDS011;11836;51.050;3.716;2023-02-28T09:28:11;4.28;;;1.60;;
23328;SDS011;11836;51.050;3.716;2023-02-28T09:30:37;3.60;;;1.65;;
23328;SDS011;11836;51.050;3.716;2023-02-28T09:33:03;4.18;;;1.38;;
23328;SDS011;11836;51.050;3.716;2023-02-28T09:35:29;3.58;;;1.80;;
23328;SDS011;11836;51.050;3.716;2023-02-28T09:37:55;5.32;;;2.20;;
23328;SDS011;11836;51.050;3.716;2023-02-28T09:40:23;1.75;;;1.33;;
23328;SDS011;11836;51.050;3.716;2023-02-28T09:42:51;3.28;;;2.00;;
23328;SDS011;11836;51.050;3.716;2023-02-28T09:45:29;3.55;;;1.63;;
23328;SDS011;11836;51.050;3.716;2023-02-28T09:48:03;2.70;;;1.63;;
23328;SDS011;11836;51.050;3.716;2023-02-28T09:50:36;3.45;;;1.60;;
23328;SDS011;11836;51.050;3.716;2023-02-28T09:53:38;4.55;;;1.60;;
23328;SDS011;11836;51.050;3.716;2023-02-28T09:56:01;3.25;;;1.60;;
23328;SDS011;11836;51.050;3.716;2023-02-28T10:01:23;2.10;;;1.60;;
23328;SDS011;11836;51.050;3.716;2023-02-28T10:03:56;2.67;;;1.65;;
23328;SDS011;11836;51.050;3.716;2023-02-28T10:06:26;3.92;;;1.63;;
23328;SDS011;11836;51.050;3.716;2023-02-28T10:08:58;3.05;;;1.60;;
23328;SDS011;11836;51.050;3.716;2023-02-28T10:11:42;4.45;;;1.90;;
23328;SDS011;11836;51.050;3.716;2023-02-28T10:14:19;2.20;;;1.48;;
23328;SDS011;11836;51.050;3.716;2023-02-28T10:21:56;4.00;;;1.55;;
23328;SDS011;11836;51.050;3.716;2023-02-28T10:24:33;1.10;;;1.00;;
23328;SDS011;11836;51.050;3.716;2023-02-28T10:29:45;4.85;;;1.88;;
23328;SDS011;11836;51.050;3.716;2023-02-28T10:32:14;3.70;;;1.52;;
23328;SDS011;11836;51.050;3.716;2023-02-28T10:37:36;5.43;;;1.50;;
23328;SDS011;11836;51.050;3.716;2023-02-28T10:40:04;2.70;;;1.60;;
23328;SDS011;11836;51.050;3.716;2023-02-28T10:42:31;3.45;;;1.40;;
23328;SDS011;11836;51.050;3.716;2023-02-28T10:45:13;4.50;;;1.80;;
23328;SDS011;11836;51.050;3.716;2023-02-28T10:50:32;9.40;;;3.15;;
23328;SDS011;11836;51.050;3.716;2023-02-28T11:04:31;10.85;;;3.15;;
23328;SDS011;11836;51.050;3.716;2023-02-28T11:07:23;6.35;;;3.10;;
23328;SDS011;11836;51.050;3.716;2023-02-28T11:09:51;8.57;;;3.25;;
23328;SDS011;11836;51.050;3.716;2023-02-28T11:14:52;10.65;;;3.05;;
23328;SDS011;11836;51.050;3.716;2023-02-28T11:17:25;10.88;;;2.92;;
23328;SDS011;11836;51.050;3.716;2023-02-28T11:19:54;8.20;;;3.00;;
23328;SDS011;11836;51.050;3.716;2023-02-28T11:22:27;6.65;;;2.60;;
23328;SDS011;11836;51.050;3.716;2023-02-28T11:25:01;6.57;;;2.40;;
23328;SDS011;11836;51.050;3.716;2023-02-28T11:27:46;4.50;;;2.33;;
23328;SDS011;11836;51.050;3.716;2023-02-28T11:32:54;5.03;;;2.15;;
23328;SDS011;11836;51.050;3.716;2023-02-28T11:35:38;4.35;;;2.08;;
23328;SDS011;11836;51.050;3.716;2023-02-28T11:38:05;4.82;;;1.85;;
23328;SDS011;11836;51.050;3.716;2023-02-28T11:40:50;1.80;;;1.48;;
23328;SDS011;11836;51.050;3.716;2023-02-28T11:46:24;2.88;;;1.63;;
23328;SDS011;11836;51.050;3.716;2023-02-28T11:51:33;2.85;;;1.60;;
23328;SDS011;11836;51.050;3.716;2023-02-28T11:56:58;3.95;;;1.70;;
23328;SDS011;11836;51.050;3.716;2023-02-28T12:02:25;3.17;;;1.52;;
23328;SDS011;11836;51.050;3.716;2023-02-28T12:07:58;5.07;;;1.58;;
23328;SDS011;11836;51.050;3.716;2023-02-28T12:10:44;3.38;;;1.70;;
23328;SDS011;11836;51.050;3.716;2023-02-28T12:13:24;2.60;;;1.15;;
23328;SDS011;11836;51.050;3.716;2023-02-28T12:16:53;5.65;;;1.50;;
23328;SDS011;11836;51.050;3.716;2023-02-28T12:19:26;1.63;;;1.00;;
23328;SDS011;11836;51.050;3.716;2023-02-28T12:22:16;3.60;;;1.33;;
23328;SDS011;11836;51.050;3.716;2023-02-28T12:27:32;3.83;;;1.48;;
23328;SDS011;11836;51.050;3.716;2023-02-28T12:30:03;1.80;;;1.27;;
23328;SDS011;11836;51.050;3.716;2023-02-28T12:32:41;2.42;;;1.55;;
23328;SDS011;11836;51.050;3.716;2023-02-28T12:35:17;3.45;;;1.27;;
23328;SDS011;11836;51.050;3.716;2023-02-28T12:37:56;3.20;;;1.40;;
23328;SDS011;11836;51.050;3.716;2023-02-28T12:40:44;2.55;;;1.10;;
23328;SDS011;11836;51.050;3.716;2023-02-28T12:43:16;1.73;;;1.15;;
23328;SDS011;11836;51.050;3.716;2023-02-28T12:51:11;1.60;;;1.10;;
23328;SDS011;11836;51.050;3.716;2023-02-28T13:02:23;2.58;;;1.63;;
23328;SDS011;11836;51.050;3.716;2023-02-28T13:07:46;2.00;;;1.00;;
23328;SDS011;11836;51.050;3.716;2023-02-28T13:10:24;1.23;;;1.13;;
23328;SDS011;11836;51.050;3.716;2023-02-28T13:12:52;1.50;;;1.08;;
23328;SDS011;11836;51.050;3.716;2023-02-28T13:15:26;1.27;;;0.80;;
23328;SDS011;11836;51.050;3.716;2023-02-28T13:17:55;1.30;;;0.93;;
23328;SDS011;11836;51.050;3.716;2023-02-28T13:20:23;1.48;;;0.90;;
23328;SDS011;11836;51.050;3.716;2023-02-28T13:22:51;1.63;;;1.00;;
23328;SDS011;11836;51.050;3.716;2023-02-28T13:27:47;2.40;;;1.10;;
23328;SDS011;11836;51.050;3.716;2023-02-28T13:36:25;4.40;;;0.90;;
23328;SDS011;11836;51.050;3.716;2023-02-28T13:38:55;1.10;;;0.95;;
23328;SDS011;11836;51.050;3.716;2023-02-28T13:46:32;1.77;;;0.90;;
23328;SDS011;11836;51.050;3.716;2023-02-28T13:52:33;1.65;;;1.00;;
23328;SDS011;11836;51.050;3.716;2023-02-28T14:06:31;2.22;;;1.00;;
23328;SDS011;11836;51.050;3.716;2023-02-28T14:11:29;2.40;;;1.15;;
23328;SDS011;11836;51.050;3.716;2023-02-28T14:13:58;2.15;;;1.38;;
23328;SDS011;11836;51.050;3.716;2023-02-28T14:16:25;2.80;;;1.17;;
23328;SDS011;11836;51.050;3.716;2023-02-28T14:24:42;2.97;;;0.93;;
23328;SDS011;11836;51.050;3.716;2023-02-28T14:27:24;1.00;;;0.90;;
23328;SDS011;11836;51.050;3.716;2023-02-28T14:30:11;1.35;;;1.02;;
23328;SDS011;11836;51.050;3.716;2023-02-28T14:38:55;2.33;;;1.52;;
23328;SDS011;11836;51.050;3.716;2023-02-28T14:41:30;1.15;;;0.70;;
23328;SDS011;11836;51.050;3.716;2023-02-28T14:44:01;2.22;;;1.02;;
23328;SDS011;11836;51.050;3.716;2023-02-28T14:46:38;1.58;;;1.00;;
23328;SDS011;11836;51.050;3.716;2023-02-28T14:49:07;1.10;;;1.00;;
23328;SDS011;11836;51.050;3.716;2023-02-28T14:54:40;1.90;;;1.08;;
23328;SDS011;11836;51.050;3.716;2023-02-28T14:57:12;1.65;;;1.08;;
23328;SDS011;11836;51.050;3.716;2023-02-28T14:59:56;1.65;;;1.13;;
23328;SDS011;11836;51.050;3.716;2023-02-28T15:02:29;3.10;;;1.20;;
23328;SDS011;11836;51.050;3.716;2023-02-28T15:05:00;1.25;;;0.98;;
23328;SDS011;11836;51.050;3.716;2023-02-28T15:07:42;1.48;;;1.20;;
23328;SDS011;11836;51.050;3.716;2023-02-28T15:12:52;2.72;;;1.38;;
23328;SDS011;11836;51.050;3.716;2023-02-28T15:15:21;1.08;;;0.98;;
23328;SDS011;11836;51.050;3.716;2023-02-28T15:17:51;1.60;;;1.10;;
23328;SDS011;11836;51.050;3.716;2023-02-28T15:20:21;1.33;;;1.00;;
23328;SDS011;11836;51.050;3.716;2023-02-28T15:22:48;1.73;;;1.23;;
23328;SDS011;11836;51.050;3.716;2023-02-28T15:25:17;3.00;;;1.15;;
23328;SDS011;11836;51.050;3.716;2023-02-28T15:27:46;1.60;;;0.95;;
23328;SDS011;11836;51.050;3.716;2023-02-28T15:30:16;2.03;;;1.35;;
23328;SDS011;11836;51.050;3.716;2023-02-28T15:32:44;2.38;;;1.20;;
23328;SDS011;11836;51.050;3.716;2023-02-28T15:35:30;1.30;;;0.80;;
23328;SDS011;11836;51.050;3.716;2023-02-28T15:40:28;1.83;;;1.10;;
23328;SDS011;11836;51.050;3.716;2023-02-28T15:48:13;1.30;;;1.00;;
23328;SDS011;11836;51.050;3.716;2023-02-28T15:50:43;1.30;;;1.20;;
23328;SDS011;11836;51.050;3.716;2023-02-28T15:53:19;1.20;;;1.05;;
23328;SDS011;11836;51.050;3.716;2023-02-28T15:55:57;1.95;;;1.30;;
23328;SDS011;11836;51.050;3.716;2023-02-28T15:58:31;2.60;;;1.35;;
23328;SDS011;11836;51.050;3.716;2023-02-28T16:01:05;2.83;;;1.20;;
23328;SDS011;11836;51.050;3.716;2023-02-28T16:03:44;2.28;;;1.50;;
23328;SDS011;11836;51.050;3.716;2023-02-28T16:07:16;3.10;;;1.15;;
23328;SDS011;11836;51.050;3.716;2023-02-28T16:09:12;2.17;;;1.35;;
23328;SDS011;11836;51.050;3.716;2023-02-28T16:14:19;1.17;;;1.08;;
23328;SDS011;11836;51.050;3.716;2023-02-28T16:16:57;4.75;;;1.27;;
23328;SDS011;11836;51.050;3.716;2023-02-28T16:19:33;2.33;;;1.70;;
23328;SDS011;11836;51.050;3.716;2023-02-28T16:22:00;3.80;;;1.50;;
23328;SDS011;11836;51.050;3.716;2023-02-28T16:24:29;2.28;;;1.55;;
23328;SDS011;11836;51.050;3.716;2023-02-28T16:26:57;1.75;;;1.17;;
23328;SDS011;11836;51.050;3.716;2023-02-28T16:29:26;1.38;;;1.10;;
23328;SDS011;11836;51.050;3.716;2023-02-28T16:31:55;2.67;;;1.48;;
23328;SDS011;11836;51.050;3.716;2023-02-28T16:34:21;2.17;;;1.30;;
23328;SDS011;11836;51.050;3.716;2023-02-28T16:36:48;1.92;;;1.40;;
23328;SDS011;11836;51.050;3.716;2023-02-28T16:39:14;1.23;;;0.93;;
23328;SDS011;11836;51.050;3.716;2023-02-28T16:41:44;2.25;;;1.27;;
23328;SDS011;11836;51.050;3.716;2023-02-28T16:44:14;4.63;;;1.65;;
23328;SDS011;11836;51.050;3.716;2023-02-28T16:46:45;3.08;;;1.50;;
23328;SDS011;11836;51.050;3.716;2023-02-28T16:49:11;3.63;;;1.13;;
23328;SDS011;11836;51.050;3.716;2023-02-28T16:51:37;2.05;;;1.30;;
23328;SDS011;11836;51.050;3.716;2023-02-28T16:54:03;2.00;;;1.45;;
23328;SDS011;11836;51.050;3.716;2023-02-28T16:56:29;3.40;;;1.95;;
23328;SDS011;11836;51.050;3.716;2023-02-28T16:58:58;1.95;;;1.10;;
23328;SDS011;11836;51.050;3.716;2023-02-28T17:03:52;2.20;;;1.33;;
23328;SDS011;11836;51.050;3.716;2023-02-28T17:06:19;1.85;;;1.02;;
23328;SDS011;11836;51.050;3.716;2023-02-28T17:08:48;1.75;;;1.20;;
23328;SDS011;11836;51.050;3.716;2023-02-28T17:11:15;3.28;;;1.27;;
23328;SDS011;11836;51.050;3.716;2023-02-28T17:13:44;3.03;;;1.52;;
23328;SDS011;11836;51.050;3.716;2023-02-28T17:16:14;1.30;;;1.17;;
23328;SDS011;11836;51.050;3.716;2023-02-28T17:18:47;2.15;;;1.35;;
23328;SDS011;11836;51.050;3.716;2023-02-28T17:21:14;1.77;;;1.15;;
23328;SDS011;11836;51.050;3.716;2023-02-28T17:23:40;1.85;;;1.30;;
23328;SDS011;11836;51.050;3.716;2023-02-28T17:26:06;2.10;;;1.40;;
23328;SDS011;11836;51.050;3.716;2023-02-28T17:28:38;2.20;;;1.45;;
23328;SDS011;11836;51.050;3.716;2023-02-28T17:31:04;2.03;;;1.42;;
23328;SDS011;11836;51.050;3.716;2023-02-28T17:33:30;3.13;;;1.63;;
23328;SDS011;11836;51.050;3.716;2023-02-28T17:35:55;2.90;;;1.27;;
23328;SDS011;11836;51.050;3.716;2023-02-28T17:38:21;2.15;;;1.45;;
23328;SDS011;11836;51.050;3.716;2023-02-28T17:40:48;2.63;;;1.45;;